Terminal Aerodrome Forecast
Issued by NWS

Home | Current Version | Previous Version | Text Only | Print | Product List | Glossary On
Versions: 1 2 3 4 5 6 7 8 9 10 11 12 13 14 15 16
000
FTAK31 PAJN 010536
TAFAWG
TAF
PAWG 010536Z 0106/0206 12015G25KT P6SM -RA SCT015 SCT025 OVC050
      TEMPO 0106/0110 12010KT 6SM -RA BR SCT010 OVC025
     FM011500 12010KT 3SM RA BR FEW006 OVC010
      AMD LTD TO CLD VIS AND WIND TIL 011500=

USA.gov is the U.S. government's official web portal to all federal, state and local government web resources and services.